^^
Station Historical Data
Daily Summary for January 11, 2017 Units:  English    Metric   Both
« Previous Day
Next Day »
Daily Weekly Monthly Yearly Custom
  High: Low: Average:
Temperature: 51.8 °F 39.6 °F 44.4 °F
Dew Point: 42.0 °F 36.3 °F 39.3 °F
Humidity: 95% 63% 83%
Wind Speed: 13.0mph 0.0mph 2.9mph
Wind Gust: 25.0mph - -
Wind- - SSW
Pressure: 30.35 in 30.19 in -
Precipitation: 0.52 in    
Historical Graphs
 
 
Tabular Data for January 11, 2017
Time Temperature Dew Point Pressure Wind Wind Speed Wind Gust Humidity Rainfall Rate (Hourly) Conditions
00:00 43.6 °F 39.3 °F 30.23 in South 7.0 mph 17.0 mph 85% 0.00 in RA
00:10 43.6 °F 39.4 °F 30.22 in SW 6.0 mph 14.0 mph 85% 0.00 in BKN
00:20 43.9 °F 39.7 °F 30.22 in SSE 7.0 mph 15.0 mph 85% 0.00 in BKN
00:30 43.9 °F 39.7 °F 30.22 in South 9.0 mph 20.0 mph 85% 0.00 in BKN
00:40 43.8 °F 39.6 °F 30.22 in South 9.0 mph 16.0 mph 85% 0.00 in BKN
00:50 43.8 °F 39.6 °F 30.22 in SSW 3.0 mph 15.0 mph 85% 0.00 in BKN
01:00 43.5 °F 39.3 °F 30.21 in SSW 6.0 mph 13.0 mph 85% 0.00 in BKN
01:10 43.3 °F 39.1 °F 30.22 in SSW 7.0 mph 15.0 mph 85% 0.00 in BKN
01:20 43.0 °F 38.8 °F 30.22 in SSW 8.0 mph 14.0 mph 85% 0.00 in BKN
01:30 42.4 °F 38.8 °F 30.23 in South 5.0 mph 12.0 mph 87% 0.01 in RA
01:40 41.4 °F 38.7 °F 30.23 in South 6.0 mph 13.0 mph 90% 0.03 in RA
01:50 40.9 °F 38.4 °F 30.23 in SSW 6.0 mph 14.0 mph 91% 0.02 in RA
02:00 40.5 °F 38.4 °F 30.23 in SSE 6.0 mph 15.0 mph 92% 0.04 in RA
02:10 40.7 °F 38.8 °F 30.21 in SSW 7.0 mph 14.0 mph 93% 0.02 in -RA
02:20 41.5 °F 39.6 °F 30.20 in SW 10.0 mph 24.0 mph 93% 0.02 in -RA
02:30 42.2 °F 40.0 °F 30.19 in South 13.0 mph 25.0 mph 92% 0.02 in -RA
02:40 42.5 °F 40.3 °F 30.20 in SSW 8.0 mph 21.0 mph 92% 0.03 in -RA
02:50 42.4 °F 40.3 °F 30.19 in South 7.0 mph 25.0 mph 92% 0.03 in -RA
03:00 42.3 °F 40.1 °F 30.19 in SSW 7.0 mph 25.0 mph 92% 0.04 in -RA
03:10 42.4 °F 40.5 °F 30.19 in SW 10.0 mph 22.0 mph 93% 0.03 in -RA
03:20 42.4 °F 40.5 °F 30.19 in SSW 8.0 mph 21.0 mph 93% 0.02 in -RA
03:30 42.3 °F 40.7 °F 30.19 in SSW 10.0 mph 20.0 mph 94% 0.00 in -RA
03:40 42.3 °F 40.7 °F 30.19 in South 8.0 mph 16.0 mph 94% 0.00 in -RA
03:50 42.3 °F 40.7 °F 30.19 in South 7.0 mph 20.0 mph 94% 0.00 in -RA
04:00 42.3 °F 40.7 °F 30.19 in SSW 5.0 mph 20.0 mph 94% 0.00 in -RA
04:10 42.3 °F 40.7 °F 30.19 in SW 9.0 mph 20.0 mph 94% 0.00 in BKN
04:20 42.2 °F 40.6 °F 30.19 in SSW 6.0 mph 17.0 mph 94% 0.00 in BKN
04:30 42.2 °F 40.6 °F 30.19 in South 5.0 mph 18.0 mph 94% 0.00 in BKN
04:40 42.2 °F 40.6 °F 30.19 in SSW 9.0 mph 17.0 mph 94% 0.00 in BKN
04:50 42.3 °F 40.4 °F 30.19 in SSW 8.0 mph 21.0 mph 93% 0.00 in BKN
05:00 42.2 °F 40.3 °F 30.19 in SSW 8.0 mph 18.0 mph 93% 0.00 in BKN
05:10 42.2 °F 40.1 °F 30.20 in SW 7.0 mph 16.0 mph 92% 0.00 in BKN
05:20 42.2 °F 39.8 °F 30.20 in South 3.0 mph 16.0 mph 91% 0.00 in BKN
05:30 42.2 °F 39.8 °F 30.21 in SSW 9.0 mph 17.0 mph 91% 0.00 in BKN
05:40 42.2 °F 39.8 °F 30.21 in SSW 6.0 mph 14.0 mph 91% 0.00 in BKN
05:50 42.0 °F 39.3 °F 30.22 in SSW 6.0 mph 13.0 mph 90% 0.00 in BKN
06:00 41.9 °F 39.2 °F 30.22 in SSW 7.0 mph 17.0 mph 90% 0.00 in BKN
06:10 41.8 °F 39.1 °F 30.23 in SSW 3.0 mph 15.0 mph 90% 0.00 in BKN
06:20 41.6 °F 38.6 °F 30.24 in South 7.0 mph 15.0 mph 89% 0.00 in BKN
06:30 41.5 °F 38.5 °F 30.25 in SW 5.0 mph 14.0 mph 89% 0.00 in BKN
06:40 41.3 °F 38.0 °F 30.26 in SW 6.0 mph 13.0 mph 88% 0.00 in BKN
06:50 41.0 °F 37.7 °F 30.28 in SW 6.0 mph 12.0 mph 88% 0.00 in BKN
07:00 40.8 °F 37.5 °F 30.28 in SW 2.0 mph 8.0 mph 88% 0.00 in BKN
07:10 40.4 °F 37.4 °F 30.28 in SW 3.0 mph 10.0 mph 89% 0.00 in SCT
07:20 39.9 °F 36.9 °F 30.28 in SSW 2.0 mph 7.0 mph 89% 0.00 in SCT
07:30 39.9 °F 36.9 °F 30.29 in SSW 1.0 mph 6.0 mph 89% 0.00 in SCT
07:40 39.7 °F 36.7 °F 30.29 in SSW 6.0 mph 12.0 mph 89% 0.00 in SCT
07:50 39.8 °F 36.8 °F 30.29 in SSW 3.0 mph 10.0 mph 89% 0.00 in SCT
08:00 39.8 °F 36.5 °F 30.29 in SW 6.0 mph 10.0 mph 88% 0.00 in SCT
08:10 39.7 °F 36.4 °F 30.30 in SSW 1.0 mph 10.0 mph 88% 0.00 in FEW
08:20 39.7 °F 36.4 °F 30.30 in SW 2.0 mph 7.0 mph 88% 0.00 in FEW
08:30 39.6 °F 36.4 °F 30.32 in Calm   8.0 mph 88% 0.00 in FEW
08:40 39.9 °F 36.3 °F 30.32 in SSW 2.0 mph 10.0 mph 87% 0.00 in FEW
08:50 40.0 °F 36.4 °F 30.33 in SSW 1.0 mph 7.0 mph 87% 0.00 in FEW
09:00 40.0 °F 36.4 °F 30.33 in South 3.0 mph 6.0 mph 87% 0.00 in FEW
09:10 40.4 °F 36.5 °F 30.33 in SSW 2.0 mph 9.0 mph 86% 0.00 in CLR
09:20 40.7 °F 36.5 °F 30.33 in SSW 1.0 mph 6.0 mph 85% 0.00 in CLR
09:30 41.3 °F 36.8 °F 30.33 in SSW 3.0 mph 8.0 mph 84% 0.00 in CLR
09:40 42.0 °F 37.2 °F 30.33 in South 3.0 mph 7.0 mph 83% 0.00 in CLR
09:50 42.7 °F 37.6 °F 30.34 in South 3.0 mph 8.0 mph 82% 0.00 in CLR
10:00 43.4 °F 38.0 °F 30.35 in SSW 3.0 mph 6.0 mph 81% 0.00 in CLR
10:10 44.1 °F 38.0 °F 30.35 in SSW 3.0 mph 9.0 mph 79% 0.00 in CLR
10:20 44.6 °F 38.1 °F 30.35 in SW 3.0 mph 10.0 mph 78% 0.00 in CLR
10:30 45.1 °F 38.3 °F 30.34 in SSW 1.0 mph 7.0 mph 77% 0.00 in CLR
10:40 45.3 °F 38.2 °F 30.34 in SW 6.0 mph 9.0 mph 76% 0.00 in CLR
10:50 46.0 °F 38.5 °F 30.34 in SSW 5.0 mph 10.0 mph 75% 0.00 in CLR
11:00 46.5 °F 39.0 °F 30.34 in SSW 2.0 mph 10.0 mph 75% 0.00 in CLR
11:10 46.8 °F 38.9 °F 30.35 in SW 1.0 mph 7.0 mph 74% 0.00 in CLR
11:20 46.7 °F 38.9 °F 30.35 in WSW 1.0 mph 5.0 mph 74% 0.00 in CLR
11:30 46.9 °F 38.7 °F 30.34 in SSW 1.0 mph 5.0 mph 73% 0.00 in CLR
11:40 47.1 °F 38.9 °F 30.34 in SW 1.0 mph 4.0 mph 73% 0.00 in CLR
11:50 47.3 °F 39.1 °F 30.33 in Calm   4.0 mph 73% 0.00 in CLR
12:00 48.1 °F 39.5 °F 30.33 in Calm   2.0 mph 72% 0.00 in CLR
12:10 48.9 °F 39.5 °F 30.33 in South 1.0 mph 4.0 mph 70% 0.00 in FEW
12:20 49.3 °F 39.5 °F 30.32 in South 1.0 mph 5.0 mph 69% 0.00 in FEW
12:30 49.1 °F 39.4 °F 30.32 in Calm   5.0 mph 69% 0.00 in FEW
12:40 49.7 °F 39.5 °F 30.32 in WSW 1.0 mph 2.0 mph 68% 0.00 in FEW
12:50 50.1 °F 39.6 °F 30.31 in SSW 1.0 mph 4.0 mph 67% 0.00 in FEW
13:00 50.4 °F 39.5 °F 30.32 in SSW 2.0 mph 5.0 mph 66% 0.00 in FEW
13:10 50.3 °F 39.7 °F 30.31 in Calm   4.0 mph 67% 0.00 in CLR
13:20 50.4 °F 39.5 °F 30.32 in SSW 1.0 mph 3.0 mph 66% 0.00 in CLR
13:30 50.6 °F 39.7 °F 30.31 in South 1.0 mph 3.0 mph 66% 0.00 in CLR
13:40 50.8 °F 39.9 °F 30.31 in South 1.0 mph 3.0 mph 66% 0.00 in CLR
13:50 51.4 °F 39.6 °F 30.31 in SW 2.0 mph 6.0 mph 64% 0.00 in CLR
14:00 51.8 °F 40.0 °F 30.31 in SSW 3.0 mph 7.0 mph 64% 0.00 in CLR
14:10 51.6 °F 39.4 °F 30.31 in SSW 3.0 mph 7.0 mph 63% 0.00 in CLR
14:20 51.3 °F 39.5 °F 30.31 in SSW 2.0 mph 7.0 mph 64% 0.00 in CLR
14:30 51.3 °F 39.9 °F 30.31 in SW 1.0 mph 4.0 mph 65% 0.00 in CLR
14:40 51.3 °F 39.6 °F 30.31 in South 1.0 mph 3.0 mph 64% 0.00 in CLR
14:50 51.5 °F 39.7 °F 30.31 in SW 1.0 mph 5.0 mph 64% 0.00 in CLR
15:00 51.4 °F 39.6 °F 30.30 in SW 1.0 mph 4.0 mph 64% 0.00 in CLR
15:10 51.6 °F 39.4 °F 30.29 in SW 1.0 mph 4.0 mph 63% 0.00 in CLR
15:20 51.4 °F 39.2 °F 30.30 in SW 2.0 mph 5.0 mph 63% 0.00 in CLR
15:30 51.0 °F 39.2 °F 30.30 in SSW 2.0 mph 4.0 mph 64% 0.00 in CLR
15:40 50.4 °F 39.5 °F 30.29 in Calm   4.0 mph 66% 0.00 in CLR
15:50 50.0 °F 39.4 °F 30.29 in Calm   1.0 mph 67% 0.00 in CLR
16:00 49.4 °F 39.2 °F 30.29 in Calm   2.0 mph 68% 0.00 in CLR
16:10 48.6 °F 39.3 °F 30.30 in Calm   2.0 mph 70% 0.00 in CLR
16:20 48.0 °F 39.0 °F 30.29 in South 1.0 mph 3.0 mph 71% 0.00 in CLR
16:30 47.5 °F 38.9 °F 30.30 in South 1.0 mph 3.0 mph 72% 0.00 in CLR
16:40 47.0 °F 38.4 °F 30.30 in Calm   3.0 mph 72% 0.00 in CLR
16:50 46.6 °F 38.4 °F 30.29 in Calm   2.0 mph 73% 0.00 in CLR
17:00 45.7 °F 38.2 °F 30.29 in Calm   1.0 mph 75% 0.00 in CLR
17:10 45.0 °F 38.2 °F 30.29 in South 1.0 mph 3.0 mph 77% 0.00 in CLR
17:20 45.3 °F 38.5 °F 30.29 in Calm   4.0 mph 77% 0.00 in CLR
17:30 45.8 °F 38.7 °F 30.29 in SSW 1.0 mph 4.0 mph 76% 0.00 in CLR
17:40 45.7 °F 38.6 °F 30.29 in South 1.0 mph 3.0 mph 76% 0.00 in CLR
17:50 45.6 °F 38.8 °F 30.30 in South 1.0 mph 5.0 mph 77% 0.00 in CLR
18:00 45.3 °F 38.8 °F 30.30 in SSW 1.0 mph 5.0 mph 78% 0.00 in CLR
18:10 45.1 °F 39.0 °F 30.30 in SSW 1.0 mph 6.0 mph 79% 0.00 in CLR
18:20 44.9 °F 38.8 °F 30.30 in South 1.0 mph 4.0 mph 79% 0.00 in CLR
18:30 44.8 °F 39.0 °F 30.30 in Calm   5.0 mph 80% 0.00 in CLR
18:40 44.5 °F 38.7 °F 30.29 in South 1.0 mph 5.0 mph 80% 0.00 in CLR
18:50 44.2 °F 38.7 °F 30.30 in Calm   5.0 mph 81% 0.00 in CLR
19:00 43.7 °F 38.5 °F 30.30 in Calm   2.0 mph 82% 0.00 in CLR
19:10 43.3 °F 38.5 °F 30.30 in WSW 1.0 mph 4.0 mph 83% 0.00 in CLR
19:20 43.2 °F 38.7 °F 30.30 in Calm   2.0 mph 84% 0.00 in CLR
19:30 43.1 °F 38.9 °F 30.29 in South 1.0 mph 4.0 mph 85% 0.00 in CLR
19:40 43.2 °F 39.6 °F 30.28 in South 1.0 mph 5.0 mph 87% 0.00 in CLR
19:50 43.2 °F 39.9 °F 30.26 in NNE 1.0 mph 6.0 mph 88% 0.00 in CLR
20:00 43.0 °F 39.6 °F 30.26 in Calm   3.0 mph 88% 0.00 in CLR
20:10 42.9 °F 40.2 °F 30.27 in Calm   3.0 mph 90% 0.00 in CLR
20:20 43.1 °F 40.4 °F 30.28 in SSW 1.0 mph 5.0 mph 90% 0.00 in CLR
20:30 43.4 °F 41.0 °F 30.27 in SW 1.0 mph 5.0 mph 91% 0.00 in CLR
20:50 43.8 °F 41.1 °F 30.28 in SW 1.0 mph 4.0 mph 90% 0.00 in CLR
21:00 43.7 °F 41.0 °F 30.27 in Calm   3.0 mph 90% 0.00 in CLR
21:10 43.5 °F 41.0 °F 30.27 in Calm   1.0 mph 91% 0.00 in SCT
21:20 43.3 °F 40.8 °F 30.28 in Calm   1.0 mph 91% 0.00 in SCT
21:30 43.2 °F 40.8 °F 30.28 in Calm   1.0 mph 91% 0.00 in SCT
21:40 43.7 °F 41.2 °F 30.28 in South 1.0 mph 5.0 mph 91% 0.00 in SCT
21:50 43.9 °F 41.4 °F 30.28 in Calm   3.0 mph 91% 0.01 in RA
22:00 43.8 °F 41.3 °F 30.28 in Calm   3.0 mph 91% 0.01 in RA
22:10 43.8 °F 41.3 °F 30.26 in Calm   1.0 mph 91% 0.01 in -RA
22:20 43.5 °F 41.1 °F 30.25 in Calm   1.0 mph 91% 0.02 in -RA
22:30 43.2 °F 41.0 °F 30.24 in Calm   3.0 mph 92% 0.02 in -RA
22:40 43.2 °F 41.3 °F 30.23 in NNE 1.0 mph 3.0 mph 93% 0.02 in -RA
22:50 42.9 °F 41.0 °F 30.22 in Calm   3.0 mph 93% 0.02 in -RA
23:00 43.0 °F 41.4 °F 30.22 in Calm   3.0 mph 94% 0.02 in -RA
23:10 43.2 °F 41.6 °F 30.24 in SSW 1.0 mph 4.0 mph 94% 0.03 in -RA
23:20 43.2 °F 41.6 °F 30.20 in Calm   5.0 mph 94% 0.02 in -RA
23:30 43.1 °F 41.8 °F 30.20 in Calm   3.0 mph 95% 0.01 in -RA
23:40 43.3 °F 42.0 °F 30.20 in SSW 1.0 mph 5.0 mph 95% 0.01 in -RA
23:50 43.4 °F 42.0 °F 30.19 in South 1.0 mph 5.0 mph 95% 0.01 in -RA
TarryTown NY Weather
Compliments of Weather Underground - 1.75 mb